createdAt,value
2023-05-22T00:01:14.870Z,66.47
2023-05-22T00:03:42.951Z,66.30
2023-05-22T00:06:12.055Z,66.05
2023-05-22T00:08:40.273Z,65.66
2023-05-22T00:11:08.680Z,65.87
2023-05-22T00:13:36.775Z,66.09
2023-05-22T00:16:07.296Z,65.38
2023-05-22T00:18:35.334Z,65.92
2023-05-22T00:21:03.866Z,66.20
2023-05-22T00:23:31.925Z,66.02
2023-05-22T00:26:00.324Z,65.83
2023-05-22T00:28:29.253Z,66.23
2023-05-22T00:30:57.573Z,66.53
2023-05-22T00:33:27.065Z,67.15
2023-05-22T00:35:55.365Z,66.64
2023-05-22T00:38:33.888Z,66.87
2023-05-22T00:41:02.754Z,66.70
2023-05-22T00:43:31.329Z,65.96
2023-05-22T00:45:59.710Z,65.29
2023-05-22T00:48:29.438Z,66.17
2023-05-22T00:50:58.873Z,67.09
2023-05-22T00:53:29.661Z,67.80
2023-05-22T00:55:58.579Z,67.63
2023-05-22T00:58:28.108Z,67.78
2023-05-22T01:00:57.067Z,68.25
2023-05-22T01:03:27.411Z,68.58
2023-05-22T01:05:57.466Z,68.54
2023-05-22T01:08:25.993Z,68.21
2023-05-22T01:10:59.985Z,68.29
2023-05-22T01:13:31.256Z,68.54
2023-05-22T01:16:07.428Z,68.96
2023-05-22T01:18:42.193Z,68.96
2023-05-22T01:21:16.183Z,69.45
2023-05-22T01:24:18.230Z,69.26
2023-05-22T01:27:09.539Z,68.69
2023-05-22T01:29:46.166Z,69.02
2023-05-22T01:32:18.569Z,69.52
2023-05-22T01:34:47.857Z,69.16
2023-05-22T01:37:18.256Z,69.31
2023-05-22T01:39:46.700Z,69.33
2023-05-22T01:42:16.229Z,69.37
2023-05-22T01:44:44.495Z,69.95
2023-05-22T01:47:12.871Z,70.00
2023-05-22T01:49:42.750Z,71.20
2023-05-22T01:52:14.634Z,71.76
2023-05-22T01:54:46.728Z,71.99
2023-05-22T01:57:20.070Z,71.93
2023-05-22T01:59:50.799Z,70.96
2023-05-22T02:02:20.557Z,71.42
2023-05-22T02:05:01.832Z,71.46
2023-05-22T02:07:31.341Z,72.00
2023-05-22T02:10:00.016Z,72.95
2023-05-22T02:12:28.541Z,72.53
2023-05-22T02:14:56.611Z,72.42
2023-05-22T02:17:26.044Z,72.57
2023-05-22T02:19:55.502Z,73.33
2023-05-22T02:22:23.870Z,73.81
2023-05-22T02:24:51.988Z,74.66
2023-05-22T02:27:20.324Z,74.83
2023-05-22T02:29:48.387Z,74.76
2023-05-22T02:32:16.701Z,74.97
2023-05-22T02:34:45.034Z,74.61
2023-05-22T02:37:15.787Z,74.55
2023-05-22T02:39:43.845Z,74.25
2023-05-22T02:42:12.197Z,74.08
2023-05-22T02:44:40.260Z,74.29
2023-05-22T02:47:08.657Z,74.54
2023-05-22T02:49:36.772Z,74.36
2023-05-22T02:52:05.610Z,74.13
2023-05-22T02:54:35.112Z,74.57
2023-05-22T02:57:04.138Z,74.24
2023-05-22T02:59:32.790Z,74.59
2023-05-22T03:02:01.370Z,74.21
2023-05-22T03:04:30.295Z,74.60
2023-05-22T03:06:59.071Z,74.56
2023-05-22T03:09:27.208Z,75.05
2023-05-22T03:11:57.147Z,74.68
2023-05-22T03:14:25.222Z,74.77
2023-05-22T03:16:54.684Z,74.91
2023-05-22T03:19:24.016Z,75.41
2023-05-22T03:21:52.503Z,76.02
2023-05-22T03:24:20.891Z,75.76
2023-05-22T03:26:49.330Z,76.24
2023-05-22T03:29:26.269Z,75.95
2023-05-22T03:31:55.324Z,76.58
2023-05-22T03:34:23.560Z,76.44
2023-05-22T03:36:51.885Z,76.26
2023-05-22T03:39:19.943Z,77.29
2023-05-22T03:41:57.839Z,77.34
2023-05-22T03:44:28.266Z,77.96
2023-05-22T03:46:56.775Z,79.55
2023-05-22T03:49:24.915Z,79.50
2023-05-22T03:51:53.256Z,79.74
2023-05-22T03:54:21.299Z,80.37
2023-05-22T03:56:50.598Z,79.78
2023-05-22T03:59:20.777Z,79.57
2023-05-22T04:01:50.801Z,79.28
2023-05-22T04:04:19.238Z,78.13
2023-05-22T04:06:47.559Z,79.28
2023-05-22T04:09:16.167Z,79.75
2023-05-22T04:11:44.564Z,78.72
2023-05-22T04:14:12.980Z,78.58
2023-05-22T04:16:41.274Z,79.53
2023-05-22T04:19:10.715Z,79.77
2023-05-22T04:21:39.354Z,78.94
2023-05-22T04:24:08.066Z,78.19
2023-05-22T04:26:37.200Z,77.85
2023-05-22T04:29:10.243Z,77.54
2023-05-22T04:31:38.638Z,77.45
2023-05-22T04:34:07.320Z,76.69
2023-05-22T04:36:38.823Z,76.55
2023-05-22T04:39:06.900Z,76.76
2023-05-22T04:41:35.233Z,76.26
2023-05-22T04:44:04.063Z,76.09
2023-05-22T04:46:34.329Z,75.89
2023-05-22T04:49:03.257Z,75.80
2023-05-22T04:51:32.894Z,75.16
2023-05-22T04:54:02.413Z,74.47
2023-05-22T04:56:36.749Z,74.76
2023-05-22T04:59:08.967Z,74.82
2023-05-22T05:01:38.451Z,74.83
2023-05-22T05:04:06.802Z,75.32
2023-05-22T05:06:35.816Z,76.17
2023-05-22T05:09:05.846Z,76.81
2023-05-22T05:11:34.218Z,77.33
2023-05-22T05:14:02.341Z,77.52
2023-05-22T05:16:30.737Z,76.94
2023-05-22T05:18:58.998Z,77.07
2023-05-22T05:21:28.002Z,76.81
2023-05-22T05:23:59.052Z,77.65
2023-05-22T05:26:29.381Z,78.10
2023-05-22T05:28:57.544Z,78.15
2023-05-22T05:31:32.905Z,79.25
2023-05-22T05:34:27.505Z,78.32
2023-05-22T05:37:03.105Z,78.78
2023-05-22T05:39:32.085Z,78.51
2023-05-22T05:42:03.672Z,78.61
2023-05-22T05:44:31.729Z,77.90
2023-05-22T05:47:01.160Z,77.31
2023-05-22T05:49:29.606Z,77.04
2023-05-22T05:51:58.574Z,76.12
2023-05-22T05:54:27.583Z,76.17
2023-05-22T05:57:00.082Z,75.68
2023-05-22T05:59:31.818Z,76.09
2023-05-22T06:02:20.278Z,77.52
2023-05-22T06:04:49.522Z,77.56
2023-05-22T06:07:19.848Z,78.96
2023-05-22T06:09:51.607Z,78.79
2023-05-22T06:12:43.116Z,78.62
2023-05-22T06:15:13.120Z,78.87
2023-05-22T06:17:41.829Z,79.73
2023-05-22T06:20:10.660Z,79.57
2023-05-22T06:22:38.948Z,79.55
2023-05-22T06:25:08.033Z,80.59
2023-05-22T06:27:36.345Z,79.32
2023-05-22T06:30:05.066Z,78.94
2023-05-22T06:32:40.162Z,78.32
2023-05-22T06:35:10.294Z,77.85
2023-05-22T06:37:38.969Z,77.43
2023-05-22T06:40:10.016Z,78.06
2023-05-22T06:42:46.711Z,77.05
2023-05-22T06:45:30.078Z,77.63
2023-05-22T06:48:18.355Z,77.01
2023-05-22T06:51:02.865Z,77.18
2023-05-22T06:53:31.387Z,77.97
2023-05-22T06:55:59.538Z,78.13
2023-05-22T06:58:43.971Z,77.69
2023-05-22T07:01:12.276Z,77.26
2023-05-22T07:03:49.777Z,76.64
2023-05-22T07:06:33.483Z,77.01
2023-05-22T07:09:03.079Z,77.50
2023-05-22T07:11:31.501Z,77.38
2023-05-22T07:14:00.127Z,76.79
2023-05-22T07:16:29.790Z,76.54
2023-05-22T07:18:59.558Z,75.70
2023-05-22T07:21:30.212Z,75.21
2023-05-22T07:23:59.149Z,75.55
2023-05-22T07:26:27.631Z,74.91
2023-05-22T07:29:04.493Z,74.50
2023-05-22T07:31:34.218Z,74.04
2023-05-22T07:34:04.926Z,72.64
2023-05-22T07:36:34.684Z,72.56
2023-05-22T07:39:05.021Z,72.05
2023-05-22T07:41:36.762Z,70.91
2023-05-22T07:44:05.403Z,70.85
2023-05-22T07:46:38.138Z,70.12
2023-05-22T07:49:20.192Z,69.26
2023-05-22T07:51:49.088Z,70.03
2023-05-22T07:54:18.412Z,69.31
2023-05-22T07:56:50.098Z,68.60
2023-05-22T07:59:21.513Z,68.65
2023-05-22T08:01:49.675Z,67.81
2023-05-22T08:04:19.465Z,67.76
2023-05-22T08:06:47.672Z,67.34
2023-05-22T08:09:16.061Z,66.74
2023-05-22T08:11:44.121Z,65.43
2023-05-22T08:14:12.934Z,64.41
2023-05-22T08:16:41.067Z,64.46
2023-05-22T08:19:09.899Z,63.01
2023-05-22T08:21:40.224Z,62.23
2023-05-22T08:24:08.919Z,63.55
2023-05-22T08:26:38.755Z,63.49
2023-05-22T08:29:07.060Z,63.20
2023-05-22T08:31:35.761Z,62.28
2023-05-22T08:34:04.858Z,62.29
2023-05-22T08:36:33.889Z,62.94
2023-05-22T08:39:03.841Z,62.80
2023-05-22T08:41:32.025Z,62.69
2023-05-22T08:44:00.361Z,62.31
2023-05-22T08:46:29.413Z,61.75
2023-05-22T08:48:58.896Z,61.04
2023-05-22T08:51:29.314Z,60.22
2023-05-22T08:53:57.982Z,59.02
2023-05-22T08:56:29.488Z,58.29
2023-05-22T08:58:58.605Z,57.41
2023-05-22T09:01:27.250Z,57.58
2023-05-22T09:03:56.516Z,56.88
2023-05-22T09:06:24.659Z,57.13
2023-05-22T09:08:53.353Z,56.33
2023-05-22T09:11:21.575Z,56.11
2023-05-22T09:13:52.142Z,55.83
2023-05-22T09:16:20.760Z,55.31
2023-05-22T09:18:49.125Z,54.56
2023-05-22T09:21:28.981Z,54.76
2023-05-22T09:24:01.020Z,54.45
2023-05-22T09:26:29.691Z,54.58
2023-05-22T09:29:00.760Z,53.70
2023-05-22T09:31:30.162Z,53.49
2023-05-22T09:33:59.187Z,54.10
2023-05-22T09:36:33.074Z,53.42
2023-05-22T09:39:02.331Z,52.54
2023-05-22T09:41:31.305Z,52.21
2023-05-22T09:44:02.126Z,51.42
2023-05-22T09:46:30.570Z,51.26
2023-05-22T09:48:59.112Z,52.21
2023-05-22T09:51:27.418Z,51.92
2023-05-22T09:54:06.249Z,52.05
2023-05-22T09:56:39.556Z,51.33
2023-05-22T09:59:10.514Z,51.54
2023-05-22T10:01:39.814Z,50.94
2023-05-22T10:04:13.377Z,50.93
2023-05-22T10:06:41.962Z,50.06
2023-05-22T10:09:12.432Z,50.53
2023-05-22T10:11:41.006Z,50.05
2023-05-22T10:14:10.710Z,50.37
2023-05-22T10:16:38.811Z,50.89
2023-05-22T10:19:08.309Z,52.19
2023-05-22T10:21:37.746Z,52.98
2023-05-22T10:24:07.478Z,49.73
2023-05-22T10:26:35.757Z,49.30
2023-05-22T10:29:08.641Z,51.38
2023-05-22T10:31:45.434Z,51.37
2023-05-22T10:34:31.403Z,51.43
2023-05-22T10:37:17.085Z,51.21
2023-05-22T10:39:55.668Z,52.53
2023-05-22T10:42:23.782Z,52.46
2023-05-22T10:44:54.165Z,51.98
2023-05-22T10:47:23.574Z,52.16
2023-05-22T10:50:04.144Z,51.30
2023-05-22T10:52:32.327Z,49.54
2023-05-22T10:55:02.040Z,48.87
2023-05-22T10:57:34.616Z,48.59
2023-05-22T11:00:10.919Z,49.43
2023-05-22T11:02:46.897Z,50.07
2023-05-22T11:05:39.656Z,48.91
2023-05-22T11:08:38.598Z,47.98
2023-05-22T11:11:14.381Z,47.85
2023-05-22T11:13:43.623Z,47.80
2023-05-22T11:16:12.241Z,46.83
2023-05-22T11:18:41.752Z,46.30
2023-05-22T11:21:13.850Z,47.00
2023-05-22T11:23:42.022Z,45.91
2023-05-22T11:26:27.082Z,46.34
2023-05-22T11:28:56.578Z,45.91
2023-05-22T11:31:26.403Z,46.03
2023-05-22T11:33:56.122Z,45.84
2023-05-22T11:36:25.726Z,45.64
2023-05-22T11:38:58.587Z,45.25
2023-05-22T11:41:33.408Z,45.51
2023-05-22T11:44:02.534Z,44.65
2023-05-22T11:46:31.068Z,43.66
2023-05-22T11:49:00.776Z,44.91
2023-05-22T11:51:29.246Z,44.56
2023-05-22T11:53:58.302Z,43.18
2023-05-22T11:56:26.986Z,43.67
2023-05-22T11:58:55.298Z,42.77
2023-05-22T12:01:23.641Z,43.16
2023-05-22T12:03:51.770Z,42.99
2023-05-22T12:06:21.539Z,43.12
2023-05-22T12:08:49.711Z,42.81
2023-05-22T12:11:18.090Z,42.57
2023-05-22T12:13:46.185Z,41.61
2023-05-22T12:16:22.720Z,41.72
2023-05-22T12:18:53.622Z,40.98
2023-05-22T12:21:23.534Z,40.09
2023-05-22T12:23:52.519Z,39.59
2023-05-22T12:26:21.372Z,39.87
2023-05-22T12:28:49.512Z,40.24
2023-05-22T12:31:21.560Z,40.53
2023-05-22T12:33:49.914Z,39.70
2023-05-22T12:36:18.225Z,39.88
2023-05-22T12:38:47.790Z,40.92
2023-05-22T12:41:16.259Z,40.33
2023-05-22T12:43:44.386Z,40.32
2023-05-22T12:46:12.706Z,39.21
2023-05-22T12:48:40.802Z,40.16
2023-05-22T12:51:10.225Z,40.63
2023-05-22T12:53:38.627Z,39.92
2023-05-22T12:56:08.322Z,39.66
2023-05-22T12:58:36.501Z,40.71
2023-05-22T13:01:04.960Z,40.30
2023-05-22T13:03:33.238Z,39.11
2023-05-22T13:06:01.566Z,39.73
2023-05-22T13:08:29.680Z,38.14
2023-05-22T13:10:58.178Z,38.50
2023-05-22T13:13:27.985Z,38.43
2023-05-22T13:15:56.337Z,38.48
2023-05-22T13:18:24.369Z,38.13
2023-05-22T13:20:52.720Z,36.84
2023-05-22T13:23:20.835Z,34.46
2023-05-22T13:25:49.189Z,34.70
2023-05-22T13:28:17.291Z,34.70
2023-05-22T13:30:47.180Z,34.84
2023-05-22T13:33:15.281Z,34.23
2023-05-22T13:35:43.571Z,33.36
2023-05-22T13:38:11.665Z,32.51
2023-05-22T13:40:42.744Z,32.26
2023-05-22T13:43:11.162Z,31.88
2023-05-22T13:45:39.637Z,32.24
2023-05-22T13:48:09.246Z,31.68
2023-05-22T13:50:37.619Z,30.62
2023-05-22T13:53:05.657Z,30.37
2023-05-22T13:55:33.975Z,29.74
2023-05-22T13:58:02.023Z,29.48
2023-05-22T14:00:30.638Z,29.04
2023-05-22T14:02:58.956Z,27.65
2023-05-22T14:05:28.637Z,28.20
2023-05-22T14:07:56.777Z,27.89
2023-05-22T14:10:25.155Z,27.67
2023-05-22T14:12:54.476Z,27.11
2023-05-22T14:15:24.185Z,27.82
2023-05-22T14:17:52.363Z,28.23
2023-05-22T14:20:21.058Z,27.33
2023-05-22T14:22:57.793Z,27.49
2023-05-22T14:25:26.961Z,26.47
2023-05-22T14:27:55.087Z,25.40
2023-05-22T14:30:23.647Z,25.78
2023-05-22T14:32:52.137Z,25.71
2023-05-22T14:35:20.887Z,25.97
2023-05-22T14:37:50.586Z,26.30
2023-05-22T14:40:19.164Z,27.41
2023-05-22T14:42:47.513Z,29.23
2023-05-22T14:45:15.939Z,28.41
2023-05-22T14:47:43.971Z,29.29
2023-05-22T14:50:19.048Z,29.75
2023-05-22T14:52:50.066Z,30.30
2023-05-22T14:55:18.507Z,31.04
2023-05-22T14:57:46.715Z,31.24
2023-05-22T15:00:16.340Z,31.66
2023-05-22T15:02:44.431Z,32.80
2023-05-22T15:05:13.010Z,34.56
2023-05-22T15:07:44.712Z,37.38
2023-05-22T15:10:15.974Z,38.96
2023-05-22T15:12:43.974Z,39.58
2023-05-22T15:15:12.783Z,39.72
2023-05-22T15:17:42.934Z,39.22
2023-05-22T15:20:12.625Z,39.03
2023-05-22T15:22:40.761Z,39.56
2023-05-22T15:25:11.550Z,39.75
2023-05-22T15:27:41.258Z,39.65
2023-05-22T15:30:10.786Z,40.09
2023-05-22T15:32:39.403Z,40.10
2023-05-22T15:35:09.064Z,40.44
2023-05-22T15:37:37.153Z,40.20
2023-05-22T15:40:06.937Z,40.57
2023-05-22T15:42:35.077Z,39.92
2023-05-22T15:45:05.630Z,41.14
2023-05-22T15:47:34.213Z,42.02
2023-05-22T15:50:02.556Z,43.79
2023-05-22T15:52:30.732Z,44.37
2023-05-22T15:54:59.274Z,44.64
2023-05-22T15:57:27.717Z,44.81
2023-05-22T15:59:56.162Z,46.06
2023-05-22T16:02:25.619Z,46.35
2023-05-22T16:04:53.972Z,46.93
2023-05-22T16:07:22.137Z,47.09
2023-05-22T16:09:50.996Z,46.82
2023-05-22T16:12:19.433Z,46.92
2023-05-22T16:14:47.772Z,47.60
2023-05-22T16:17:15.989Z,48.11
2023-05-22T16:19:45.713Z,48.70
2023-05-22T16:22:13.828Z,48.62
2023-05-22T16:24:42.150Z,49.49
2023-05-22T16:27:10.282Z,49.55
2023-05-22T16:29:38.579Z,50.25
2023-05-22T16:32:06.902Z,51.29
2023-05-22T16:34:36.393Z,51.35
2023-05-22T16:37:06.060Z,52.22
2023-05-22T16:39:34.450Z,51.99
2023-05-22T16:42:02.480Z,51.96
2023-05-22T16:44:30.829Z,51.51
2023-05-22T16:46:58.951Z,52.11
2023-05-22T16:49:33.122Z,53.02
2023-05-22T16:52:01.172Z,52.89
2023-05-22T16:54:30.782Z,51.51
2023-05-22T16:56:58.868Z,50.46
2023-05-22T16:59:27.167Z,50.65
2023-05-22T17:01:55.180Z,50.46
2023-05-22T17:04:23.456Z,51.18
2023-05-22T17:06:53.688Z,51.49
2023-05-22T17:09:22.165Z,51.50
2023-05-22T17:11:51.535Z,51.40
2023-05-22T17:14:21.628Z,51.62
2023-05-22T17:16:49.841Z,51.30
2023-05-22T17:19:18.419Z,50.64
2023-05-22T17:21:46.689Z,49.17
2023-05-22T17:24:15.147Z,49.08
2023-05-22T17:26:43.361Z,49.99
2023-05-22T17:29:12.986Z,49.36
2023-05-22T17:31:41.091Z,49.36
2023-05-22T17:34:09.575Z,50.10
2023-05-22T17:36:37.889Z,51.55
2023-05-22T17:39:06.611Z,51.33
2023-05-22T17:41:34.882Z,51.41
2023-05-22T17:44:03.205Z,51.09
2023-05-22T17:46:32.828Z,50.83
2023-05-22T17:49:01.139Z,51.66
2023-05-22T17:51:29.394Z,52.08
2023-05-22T17:53:58.953Z,53.04
2023-05-22T17:56:27.715Z,53.38
2023-05-22T17:58:56.080Z,54.28
2023-05-22T18:01:24.415Z,54.93
2023-05-22T18:03:54.439Z,55.06
2023-05-22T18:06:24.269Z,56.38
2023-05-22T18:08:53.119Z,56.81
2023-05-22T18:11:21.245Z,57.63
2023-05-22T18:13:49.634Z,57.85
2023-05-22T18:16:18.812Z,58.29
2023-05-22T18:18:47.117Z,59.10
2023-05-22T18:21:16.546Z,58.63
2023-05-22T18:23:44.889Z,59.54
2023-05-22T18:26:13.001Z,60.83
2023-05-22T18:28:42.352Z,61.65
2023-05-22T18:31:10.513Z,62.12
2023-05-22T18:33:39.716Z,62.47
2023-05-22T18:36:07.870Z,62.93
2023-05-22T18:38:37.593Z,63.71
2023-05-22T18:41:06.714Z,63.43
2023-05-22T18:43:35.081Z,63.12
2023-05-22T18:46:03.275Z,63.51
2023-05-22T18:48:33.070Z,63.57
2023-05-22T18:51:01.355Z,63.21
2023-05-22T18:53:29.996Z,63.42
2023-05-22T18:55:59.359Z,63.13
2023-05-22T18:58:27.693Z,63.72
2023-05-22T19:00:56.293Z,63.86
2023-05-22T19:03:24.703Z,63.94
2023-05-22T19:05:53.208Z,64.66
2023-05-22T19:08:21.562Z,65.35
2023-05-22T19:10:49.632Z,65.57
2023-05-22T19:13:19.440Z,65.99
2023-05-22T19:15:47.519Z,66.32
2023-05-22T19:18:15.951Z,66.39
2023-05-22T19:20:44.161Z,66.88
2023-05-22T19:23:13.772Z,66.96
2023-05-22T19:25:41.920Z,67.57
2023-05-22T19:28:10.385Z,67.86
2023-05-22T19:30:40.214Z,68.49
2023-05-22T19:33:09.042Z,68.91
2023-05-22T19:35:37.813Z,69.08
2023-05-22T19:38:06.271Z,68.71
2023-05-22T19:40:34.325Z,68.48
2023-05-22T19:43:02.918Z,68.78
2023-05-22T19:45:31.108Z,69.29
2023-05-22T19:48:00.874Z,69.57
2023-05-22T19:50:28.918Z,70.70
2023-05-22T19:52:57.348Z,71.06
2023-05-22T19:55:25.621Z,71.15
2023-05-22T19:57:53.924Z,70.97
2023-05-22T20:00:22.656Z,70.98
2023-05-22T20:02:51.268Z,70.69
2023-05-22T20:05:20.916Z,70.44
2023-05-22T20:07:49.337Z,69.91
2023-05-22T20:10:17.580Z,69.74
2023-05-22T20:12:48.543Z,70.22
2023-05-22T20:15:17.726Z,70.54
2023-05-22T20:17:47.530Z,70.66
2023-05-22T20:20:15.889Z,70.84
2023-05-22T20:22:45.718Z,71.21
2023-05-22T20:25:13.855Z,70.91
2023-05-22T20:27:42.230Z,71.22
2023-05-22T20:30:12.516Z,71.15
2023-05-22T20:32:42.484Z,71.50
2023-05-22T20:35:13.721Z,71.68
2023-05-22T20:37:42.092Z,71.18
2023-05-22T20:40:12.963Z,71.79
2023-05-22T20:42:42.533Z,72.22
2023-05-22T20:45:14.200Z,73.58
2023-05-22T20:47:43.354Z,74.09
2023-05-22T20:50:12.043Z,75.16
2023-05-22T20:52:40.429Z,74.89
2023-05-22T20:55:09.355Z,75.21
2023-05-22T20:57:39.206Z,75.68
2023-05-22T21:00:11.062Z,77.07
2023-05-22T21:02:39.803Z,77.95
2023-05-22T21:05:08.717Z,77.26
2023-05-22T21:07:37.321Z,77.76
2023-05-22T21:10:08.065Z,77.82
2023-05-22T21:12:39.354Z,78.28
2023-05-22T21:15:11.619Z,77.58
2023-05-22T21:17:40.213Z,76.78
2023-05-22T21:20:09.037Z,76.86
2023-05-22T21:22:37.327Z,76.83
2023-05-22T21:25:06.176Z,76.55
2023-05-22T21:27:34.491Z,76.35
2023-05-22T21:30:03.986Z,76.27
2023-05-22T21:32:32.330Z,76.43
2023-05-22T21:35:00.416Z,76.72
2023-05-22T21:37:28.728Z,76.87
2023-05-22T21:39:56.780Z,77.05
2023-05-22T21:42:26.183Z,77.07
2023-05-22T21:44:54.347Z,76.80
2023-05-22T21:47:24.117Z,77.17
2023-05-22T21:49:52.232Z,76.72
2023-05-22T21:52:20.675Z,77.33
2023-05-22T21:54:48.714Z,77.20
2023-05-22T21:57:17.043Z,77.43
2023-05-22T21:59:47.097Z,77.65
2023-05-22T22:02:15.536Z,77.77
2023-05-22T22:04:45.052Z,77.94
2023-05-22T22:07:14.029Z,78.51
2023-05-22T22:09:42.172Z,78.64
2023-05-22T22:12:10.525Z,79.08
2023-05-22T22:14:38.521Z,79.15
2023-05-22T22:17:07.811Z,79.46
2023-05-22T22:19:36.130Z,79.17
2023-05-22T22:22:06.596Z,79.49
2023-05-22T22:24:34.980Z,79.59
2023-05-22T22:27:03.513Z,79.64
2023-05-22T22:29:31.593Z,79.60
2023-05-22T22:32:00.703Z,79.53
2023-05-22T22:34:29.029Z,79.56
2023-05-22T22:36:57.761Z,80.57
2023-05-22T22:39:27.393Z,81.20
2023-05-22T22:41:55.779Z,80.78
2023-05-22T22:44:23.851Z,81.82
2023-05-22T22:46:52.092Z,82.09
2023-05-22T22:49:21.647Z,81.78
2023-05-22T22:51:50.949Z,82.09
2023-05-22T22:54:18.963Z,82.15
2023-05-22T22:56:49.707Z,82.32
2023-05-22T22:59:17.818Z,81.62
2023-05-22T23:01:46.176Z,81.35
2023-05-22T23:04:14.470Z,80.82
2023-05-22T23:06:42.901Z,79.70
2023-05-22T23:09:11.076Z,79.53
2023-05-22T23:11:39.876Z,79.60
2023-05-22T23:14:10.021Z,80.50
2023-05-22T23:16:40.762Z,80.71
2023-05-22T23:19:11.849Z,80.56
2023-05-22T23:21:40.417Z,80.17
2023-05-22T23:24:09.957Z,79.47
2023-05-22T23:26:38.299Z,80.39
2023-05-22T23:29:06.448Z,80.52
2023-05-22T23:31:36.601Z,79.81
2023-05-22T23:34:04.761Z,79.06
2023-05-22T23:36:33.505Z,80.18
2023-05-22T23:39:01.600Z,79.38
2023-05-22T23:41:29.873Z,79.59
2023-05-22T23:43:57.969Z,79.56
2023-05-22T23:46:26.274Z,79.01
2023-05-22T23:48:55.721Z,79.23
2023-05-22T23:51:24.060Z,79.27
2023-05-22T23:53:52.119Z,79.42
2023-05-22T23:56:21.461Z,79.46
2023-05-22T23:58:49.715Z,79.27
